sensor_id;sensor_type;location;lat;lon;timestamp;P1;durP1;ratioP1;P2;durP2;ratioP2
34481;SDS011;20720;48.886;9.388;2023-12-20T00:00:02;2.10;;;1.10;;
34481;SDS011;20720;48.886;9.388;2023-12-20T00:02:28;2.22;;;1.00;;
34481;SDS011;20720;48.886;9.388;2023-12-20T00:04:53;2.28;;;1.15;;
34481;SDS011;20720;48.886;9.388;2023-12-20T00:07:18;2.28;;;0.93;;
34481;SDS011;20720;48.886;9.388;2023-12-20T00:09:44;2.33;;;1.10;;
34481;SDS011;20720;48.886;9.388;2023-12-20T00:12:09;2.40;;;1.20;;
34481;SDS011;20720;48.886;9.388;2023-12-20T00:14:34;2.47;;;1.13;;
34481;SDS011;20720;48.886;9.388;2023-12-20T00:17:00;2.45;;;1.10;;
34481;SDS011;20720;48.886;9.388;2023-12-20T00:19:25;2.70;;;1.50;;
34481;SDS011;20720;48.886;9.388;2023-12-20T00:21:50;2.13;;;1.20;;
34481;SDS011;20720;48.886;9.388;2023-12-20T00:24:15;3.40;;;1.00;;
34481;SDS011;20720;48.886;9.388;2023-12-20T00:26:41;2.20;;;1.13;;
34481;SDS011;20720;48.886;9.388;2023-12-20T00:29:06;3.15;;;1.20;;
34481;SDS011;20720;48.886;9.388;2023-12-20T00:31:32;2.80;;;1.20;;
34481;SDS011;20720;48.886;9.388;2023-12-20T00:33:57;2.60;;;1.20;;
34481;SDS011;20720;48.886;9.388;2023-12-20T00:36:22;2.85;;;1.10;;
34481;SDS011;20720;48.886;9.388;2023-12-20T00:38:47;2.97;;;1.40;;
34481;SDS011;20720;48.886;9.388;2023-12-20T00:41:13;2.78;;;1.30;;
34481;SDS011;20720;48.886;9.388;2023-12-20T00:43:38;2.95;;;1.58;;
34481;SDS011;20720;48.886;9.388;2023-12-20T00:46:03;2.75;;;1.40;;
34481;SDS011;20720;48.886;9.388;2023-12-20T00:48:28;3.22;;;1.70;;
34481;SDS011;20720;48.886;9.388;2023-12-20T00:50:56;3.72;;;1.83;;
34481;SDS011;20720;48.886;9.388;2023-12-20T00:53:21;2.72;;;1.30;;
34481;SDS011;20720;48.886;9.388;2023-12-20T00:55:46;2.60;;;1.35;;
34481;SDS011;20720;48.886;9.388;2023-12-20T00:58:12;1.83;;;1.10;;
34481;SDS011;20720;48.886;9.388;2023-12-20T01:00:37;4.00;;;1.48;;
34481;SDS011;20720;48.886;9.388;2023-12-20T01:03:03;3.60;;;1.95;;
34481;SDS011;20720;48.886;9.388;2023-12-20T01:05:28;2.58;;;1.58;;
34481;SDS011;20720;48.886;9.388;2023-12-20T01:07:53;3.60;;;1.33;;
34481;SDS011;20720;48.886;9.388;2023-12-20T01:10:19;3.65;;;1.90;;
34481;SDS011;20720;48.886;9.388;2023-12-20T01:12:44;2.63;;;1.50;;
34481;SDS011;20720;48.886;9.388;2023-12-20T01:15:09;5.82;;;1.70;;
34481;SDS011;20720;48.886;9.388;2023-12-20T01:17:35;5.38;;;2.25;;
34481;SDS011;20720;48.886;9.388;2023-12-20T01:20:00;7.35;;;2.63;;
34481;SDS011;20720;48.886;9.388;2023-12-20T01:22:26;5.45;;;2.88;;
34481;SDS011;20720;48.886;9.388;2023-12-20T01:24:51;5.05;;;2.63;;
34481;SDS011;20720;48.886;9.388;2023-12-20T01:27:16;4.68;;;2.10;;
34481;SDS011;20720;48.886;9.388;2023-12-20T01:29:42;3.78;;;2.08;;
34481;SDS011;20720;48.886;9.388;2023-12-20T01:32:07;3.65;;;2.08;;
34481;SDS011;20720;48.886;9.388;2023-12-20T01:34:32;3.33;;;1.70;;
34481;SDS011;20720;48.886;9.388;2023-12-20T01:36:58;4.15;;;2.10;;
34481;SDS011;20720;48.886;9.388;2023-12-20T01:39:23;5.13;;;1.92;;
34481;SDS011;20720;48.886;9.388;2023-12-20T01:41:48;4.05;;;1.92;;
34481;SDS011;20720;48.886;9.388;2023-12-20T01:44:14;3.95;;;1.90;;
34481;SDS011;20720;48.886;9.388;2023-12-20T01:46:39;3.47;;;2.10;;
34481;SDS011;20720;48.886;9.388;2023-12-20T01:49:04;8.60;;;2.20;;
34481;SDS011;20720;48.886;9.388;2023-12-20T01:51:30;5.03;;;2.60;;
34481;SDS011;20720;48.886;9.388;2023-12-20T01:53:56;6.88;;;2.65;;
34481;SDS011;20720;48.886;9.388;2023-12-20T01:56:22;6.72;;;3.58;;
34481;SDS011;20720;48.886;9.388;2023-12-20T01:58:48;6.82;;;3.83;;
34481;SDS011;20720;48.886;9.388;2023-12-20T02:01:14;7.47;;;3.88;;
34481;SDS011;20720;48.886;9.388;2023-12-20T02:03:43;6.10;;;3.50;;
34481;SDS011;20720;48.886;9.388;2023-12-20T02:06:09;7.30;;;4.65;;
34481;SDS011;20720;48.886;9.388;2023-12-20T02:08:35;5.68;;;3.13;;
34481;SDS011;20720;48.886;9.388;2023-12-20T02:11:01;5.70;;;3.38;;
34481;SDS011;20720;48.886;9.388;2023-12-20T02:13:26;9.70;;;3.90;;
34481;SDS011;20720;48.886;9.388;2023-12-20T02:15:52;4.35;;;2.70;;
34481;SDS011;20720;48.886;9.388;2023-12-20T02:18:17;4.25;;;2.90;;
34481;SDS011;20720;48.886;9.388;2023-12-20T02:20:43;5.40;;;2.95;;
34481;SDS011;20720;48.886;9.388;2023-12-20T02:23:08;9.65;;;4.55;;
34481;SDS011;20720;48.886;9.388;2023-12-20T02:25:33;7.90;;;4.55;;
34481;SDS011;20720;48.886;9.388;2023-12-20T02:27:58;8.82;;;4.60;;
34481;SDS011;20720;48.886;9.388;2023-12-20T02:30:24;8.32;;;4.90;;
34481;SDS011;20720;48.886;9.388;2023-12-20T02:32:49;18.55;;;9.75;;
34481;SDS011;20720;48.886;9.388;2023-12-20T02:35:15;14.13;;;7.72;;
34481;SDS011;20720;48.886;9.388;2023-12-20T02:37:40;9.95;;;5.47;;
34481;SDS011;20720;48.886;9.388;2023-12-20T02:40:05;9.50;;;5.95;;
34481;SDS011;20720;48.886;9.388;2023-12-20T02:42:31;9.82;;;5.32;;
34481;SDS011;20720;48.886;9.388;2023-12-20T02:44:56;10.13;;;5.15;;
34481;SDS011;20720;48.886;9.388;2023-12-20T02:47:22;8.85;;;5.13;;
34481;SDS011;20720;48.886;9.388;2023-12-20T02:49:47;7.35;;;5.13;;
34481;SDS011;20720;48.886;9.388;2023-12-20T02:52:12;7.80;;;5.15;;
34481;SDS011;20720;48.886;9.388;2023-12-20T02:54:37;8.63;;;5.00;;
34481;SDS011;20720;48.886;9.388;2023-12-20T02:57:03;7.28;;;4.82;;
34481;SDS011;20720;48.886;9.388;2023-12-20T02:59:29;7.10;;;4.88;;
34481;SDS011;20720;48.886;9.388;2023-12-20T03:01:55;7.95;;;4.88;;
34481;SDS011;20720;48.886;9.388;2023-12-20T03:04:20;6.60;;;4.82;;
34481;SDS011;20720;48.886;9.388;2023-12-20T03:06:45;8.68;;;5.68;;
34481;SDS011;20720;48.886;9.388;2023-12-20T03:09:11;7.78;;;5.38;;
34481;SDS011;20720;48.886;9.388;2023-12-20T03:11:36;7.45;;;4.95;;
34481;SDS011;20720;48.886;9.388;2023-12-20T03:14:01;8.85;;;5.68;;
34481;SDS011;20720;48.886;9.388;2023-12-20T03:16:27;7.00;;;4.72;;
34481;SDS011;20720;48.886;9.388;2023-12-20T03:18:52;6.65;;;4.82;;
34481;SDS011;20720;48.886;9.388;2023-12-20T03:21:17;5.75;;;3.92;;
34481;SDS011;20720;48.886;9.388;2023-12-20T03:23:42;4.40;;;3.47;;
34481;SDS011;20720;48.886;9.388;2023-12-20T03:26:08;3.28;;;2.10;;
34481;SDS011;20720;48.886;9.388;2023-12-20T03:28:34;4.40;;;1.90;;
34481;SDS011;20720;48.886;9.388;2023-12-20T03:31:00;2.30;;;1.38;;
34481;SDS011;20720;48.886;9.388;2023-12-20T03:33:27;2.17;;;1.30;;
34481;SDS011;20720;48.886;9.388;2023-12-20T03:35:52;2.92;;;0.77;;
34481;SDS011;20720;48.886;9.388;2023-12-20T03:38:17;2.35;;;0.80;;
34481;SDS011;20720;48.886;9.388;2023-12-20T03:40:43;1.50;;;0.70;;
34481;SDS011;20720;48.886;9.388;2023-12-20T03:43:08;1.63;;;0.60;;
34481;SDS011;20720;48.886;9.388;2023-12-20T03:45:33;0.75;;;0.40;;
34481;SDS011;20720;48.886;9.388;2023-12-20T03:47:58;0.80;;;0.40;;
34481;SDS011;20720;48.886;9.388;2023-12-20T03:50:24;1.20;;;0.50;;
34481;SDS011;20720;48.886;9.388;2023-12-20T03:52:49;0.90;;;0.38;;
34481;SDS011;20720;48.886;9.388;2023-12-20T03:55:15;0.73;;;0.38;;
34481;SDS011;20720;48.886;9.388;2023-12-20T03:57:40;1.48;;;0.50;;
34481;SDS011;20720;48.886;9.388;2023-12-20T04:00:06;1.00;;;0.35;;
34481;SDS011;20720;48.886;9.388;2023-12-20T04:02:39;1.00;;;0.40;;
34481;SDS011;20720;48.886;9.388;2023-12-20T04:05:05;0.90;;;0.40;;
34481;SDS011;20720;48.886;9.388;2023-12-20T04:07:31;0.70;;;0.30;;
34481;SDS011;20720;48.886;9.388;2023-12-20T04:09:57;0.68;;;0.40;;
34481;SDS011;20720;48.886;9.388;2023-12-20T04:12:22;1.40;;;0.40;;
34481;SDS011;20720;48.886;9.388;2023-12-20T04:14:48;1.00;;;0.40;;
34481;SDS011;20720;48.886;9.388;2023-12-20T04:17:13;0.80;;;0.45;;
34481;SDS011;20720;48.886;9.388;2023-12-20T04:19:40;1.10;;;0.40;;
34481;SDS011;20720;48.886;9.388;2023-12-20T04:22:06;0.50;;;0.30;;
34481;SDS011;20720;48.886;9.388;2023-12-20T04:24:31;0.57;;;0.30;;
34481;SDS011;20720;48.886;9.388;2023-12-20T04:26:56;0.40;;;0.25;;
34481;SDS011;20720;48.886;9.388;2023-12-20T04:29:21;1.65;;;0.30;;
34481;SDS011;20720;48.886;9.388;2023-12-20T04:31:47;0.38;;;0.28;;
34481;SDS011;20720;48.886;9.388;2023-12-20T04:34:12;1.48;;;0.43;;
34481;SDS011;20720;48.886;9.388;2023-12-20T04:36:37;0.88;;;0.40;;
34481;SDS011;20720;48.886;9.388;2023-12-20T04:39:02;1.05;;;0.50;;
34481;SDS011;20720;48.886;9.388;2023-12-20T04:41:28;0.65;;;0.30;;
34481;SDS011;20720;48.886;9.388;2023-12-20T04:43:53;0.70;;;0.40;;
34481;SDS011;20720;48.886;9.388;2023-12-20T04:46:18;1.05;;;0.43;;
34481;SDS011;20720;48.886;9.388;2023-12-20T04:48:44;1.15;;;0.52;;
34481;SDS011;20720;48.886;9.388;2023-12-20T04:51:09;0.57;;;0.30;;
34481;SDS011;20720;48.886;9.388;2023-12-20T04:53:34;1.08;;;0.47;;
34481;SDS011;20720;48.886;9.388;2023-12-20T04:55:59;0.65;;;0.38;;
34481;SDS011;20720;48.886;9.388;2023-12-20T04:58:25;0.98;;;0.40;;
34481;SDS011;20720;48.886;9.388;2023-12-20T05:00:50;0.95;;;0.50;;
34481;SDS011;20720;48.886;9.388;2023-12-20T05:03:15;0.82;;;0.30;;
34481;SDS011;20720;48.886;9.388;2023-12-20T05:05:41;3.20;;;0.50;;
34481;SDS011;20720;48.886;9.388;2023-12-20T05:08:06;0.93;;;0.40;;
34481;SDS011;20720;48.886;9.388;2023-12-20T05:10:31;0.70;;;0.30;;
34481;SDS011;20720;48.886;9.388;2023-12-20T05:12:56;1.30;;;0.50;;
34481;SDS011;20720;48.886;9.388;2023-12-20T05:15:21;1.05;;;0.45;;
34481;SDS011;20720;48.886;9.388;2023-12-20T05:17:47;0.90;;;0.50;;
34481;SDS011;20720;48.886;9.388;2023-12-20T05:20:12;1.30;;;0.47;;
34481;SDS011;20720;48.886;9.388;2023-12-20T05:22:37;1.73;;;0.60;;
34481;SDS011;20720;48.886;9.388;2023-12-20T05:25:03;0.77;;;0.40;;
34481;SDS011;20720;48.886;9.388;2023-12-20T05:27:29;0.90;;;0.40;;
34481;SDS011;20720;48.886;9.388;2023-12-20T05:29:54;0.98;;;0.40;;
34481;SDS011;20720;48.886;9.388;2023-12-20T05:32:22;1.10;;;0.50;;
34481;SDS011;20720;48.886;9.388;2023-12-20T05:34:48;1.48;;;0.57;;
34481;SDS011;20720;48.886;9.388;2023-12-20T05:37:13;2.28;;;0.50;;
34481;SDS011;20720;48.886;9.388;2023-12-20T05:39:38;1.55;;;0.50;;
34481;SDS011;20720;48.886;9.388;2023-12-20T05:42:03;0.82;;;0.50;;
34481;SDS011;20720;48.886;9.388;2023-12-20T05:44:29;1.08;;;0.45;;
34481;SDS011;20720;48.886;9.388;2023-12-20T05:46:54;0.90;;;0.45;;
34481;SDS011;20720;48.886;9.388;2023-12-20T05:49:19;0.90;;;0.50;;
34481;SDS011;20720;48.886;9.388;2023-12-20T05:51:44;0.90;;;0.50;;
34481;SDS011;20720;48.886;9.388;2023-12-20T05:54:10;0.85;;;0.40;;
34481;SDS011;20720;48.886;9.388;2023-12-20T05:56:35;2.15;;;0.73;;
34481;SDS011;20720;48.886;9.388;2023-12-20T05:59:00;1.27;;;0.60;;
34481;SDS011;20720;48.886;9.388;2023-12-20T06:01:26;1.45;;;0.80;;
34481;SDS011;20720;48.886;9.388;2023-12-20T06:03:51;1.75;;;0.60;;
34481;SDS011;20720;48.886;9.388;2023-12-20T06:06:16;3.35;;;0.80;;
34481;SDS011;20720;48.886;9.388;2023-12-20T06:08:42;1.92;;;1.05;;
34481;SDS011;20720;48.886;9.388;2023-12-20T06:11:11;1.98;;;0.70;;
34481;SDS011;20720;48.886;9.388;2023-12-20T06:13:36;1.75;;;0.80;;
34481;SDS011;20720;48.886;9.388;2023-12-20T06:16:03;1.67;;;1.00;;
34481;SDS011;20720;48.886;9.388;2023-12-20T06:18:30;1.75;;;0.98;;
34481;SDS011;20720;48.886;9.388;2023-12-20T06:20:55;2.83;;;0.93;;
34481;SDS011;20720;48.886;9.388;2023-12-20T06:23:20;2.97;;;1.25;;
34481;SDS011;20720;48.886;9.388;2023-12-20T06:25:45;5.55;;;1.10;;
34481;SDS011;20720;48.886;9.388;2023-12-20T06:28:11;1.77;;;0.95;;
34481;SDS011;20720;48.886;9.388;2023-12-20T06:30:39;2.10;;;1.48;;
34481;SDS011;20720;48.886;9.388;2023-12-20T06:33:04;2.75;;;1.50;;
34481;SDS011;20720;48.886;9.388;2023-12-20T06:35:31;2.55;;;1.55;;
34481;SDS011;20720;48.886;9.388;2023-12-20T06:37:56;3.28;;;1.70;;
34481;SDS011;20720;48.886;9.388;2023-12-20T06:40:22;2.45;;;1.50;;
34481;SDS011;20720;48.886;9.388;2023-12-20T06:42:47;4.30;;;1.60;;
34481;SDS011;20720;48.886;9.388;2023-12-20T06:45:12;3.45;;;1.60;;
34481;SDS011;20720;48.886;9.388;2023-12-20T06:47:37;3.63;;;1.48;;
34481;SDS011;20720;48.886;9.388;2023-12-20T06:50:03;2.45;;;1.38;;
34481;SDS011;20720;48.886;9.388;2023-12-20T06:52:29;2.75;;;1.52;;
34481;SDS011;20720;48.886;9.388;2023-12-20T06:54:54;2.20;;;1.40;;
34481;SDS011;20720;48.886;9.388;2023-12-20T06:57:19;3.25;;;1.65;;
34481;SDS011;20720;48.886;9.388;2023-12-20T06:59:44;2.95;;;1.80;;
34481;SDS011;20720;48.886;9.388;2023-12-20T07:02:10;2.28;;;1.70;;
34481;SDS011;20720;48.886;9.388;2023-12-20T07:04:39;2.30;;;1.70;;
34481;SDS011;20720;48.886;9.388;2023-12-20T07:07:05;2.40;;;1.67;;
34481;SDS011;20720;48.886;9.388;2023-12-20T07:09:32;3.30;;;1.90;;
34481;SDS011;20720;48.886;9.388;2023-12-20T07:11:57;4.47;;;2.40;;
34481;SDS011;20720;48.886;9.388;2023-12-20T07:14:23;3.20;;;2.10;;
34481;SDS011;20720;48.886;9.388;2023-12-20T07:16:48;3.22;;;2.20;;
34481;SDS011;20720;48.886;9.388;2023-12-20T07:19:13;3.83;;;2.95;;
34481;SDS011;20720;48.886;9.388;2023-12-20T07:21:39;3.90;;;2.67;;
34481;SDS011;20720;48.886;9.388;2023-12-20T07:24:04;4.50;;;2.97;;
34481;SDS011;20720;48.886;9.388;2023-12-20T07:26:29;4.20;;;3.03;;
34481;SDS011;20720;48.886;9.388;2023-12-20T07:28:55;4.95;;;3.50;;
34481;SDS011;20720;48.886;9.388;2023-12-20T07:31:20;4.90;;;3.60;;
34481;SDS011;20720;48.886;9.388;2023-12-20T07:33:45;4.60;;;4.00;;
34481;SDS011;20720;48.886;9.388;2023-12-20T07:36:11;5.55;;;3.83;;
34481;SDS011;20720;48.886;9.388;2023-12-20T07:38:37;6.32;;;4.10;;
34481;SDS011;20720;48.886;9.388;2023-12-20T07:41:02;4.60;;;3.80;;
34481;SDS011;20720;48.886;9.388;2023-12-20T07:43:27;6.88;;;5.05;;
34481;SDS011;20720;48.886;9.388;2023-12-20T07:45:53;10.60;;;8.15;;
34481;SDS011;20720;48.886;9.388;2023-12-20T07:48:18;6.03;;;4.65;;
34481;SDS011;20720;48.886;9.388;2023-12-20T07:50:43;8.20;;;5.63;;
34481;SDS011;20720;48.886;9.388;2023-12-20T07:53:08;7.70;;;5.60;;
34481;SDS011;20720;48.886;9.388;2023-12-20T07:55:34;8.65;;;6.85;;
34481;SDS011;20720;48.886;9.388;2023-12-20T07:57:59;6.72;;;5.10;;
34481;SDS011;20720;48.886;9.388;2023-12-20T08:00:25;6.82;;;5.32;;
34481;SDS011;20720;48.886;9.388;2023-12-20T08:02:50;6.93;;;4.95;;
34481;SDS011;20720;48.886;9.388;2023-12-20T08:05:15;6.85;;;4.75;;
34481;SDS011;20720;48.886;9.388;2023-12-20T08:07:40;5.65;;;4.68;;
34481;SDS011;20720;48.886;9.388;2023-12-20T08:10:06;7.55;;;6.18;;
34481;SDS011;20720;48.886;9.388;2023-12-20T08:12:31;6.78;;;5.07;;
34481;SDS011;20720;48.886;9.388;2023-12-20T08:14:57;5.93;;;4.47;;
34481;SDS011;20720;48.886;9.388;2023-12-20T08:17:22;7.70;;;4.50;;
34481;SDS011;20720;48.886;9.388;2023-12-20T08:19:48;5.43;;;4.13;;
34481;SDS011;20720;48.886;9.388;2023-12-20T08:22:13;6.00;;;4.70;;
34481;SDS011;20720;48.886;9.388;2023-12-20T08:24:39;6.38;;;3.90;;
34481;SDS011;20720;48.886;9.388;2023-12-20T08:27:04;5.45;;;4.05;;
34481;SDS011;20720;48.886;9.388;2023-12-20T08:29:29;4.57;;;3.70;;
34481;SDS011;20720;48.886;9.388;2023-12-20T08:31:55;5.38;;;3.75;;
34481;SDS011;20720;48.886;9.388;2023-12-20T08:34:21;5.65;;;3.92;;
34481;SDS011;20720;48.886;9.388;2023-12-20T08:36:46;7.25;;;3.83;;
34481;SDS011;20720;48.886;9.388;2023-12-20T08:39:12;5.60;;;4.15;;
34481;SDS011;20720;48.886;9.388;2023-12-20T08:41:37;8.20;;;4.30;;
34481;SDS011;20720;48.886;9.388;2023-12-20T08:44:02;7.43;;;4.30;;
34481;SDS011;20720;48.886;9.388;2023-12-20T08:46:28;4.20;;;3.22;;
34481;SDS011;20720;48.886;9.388;2023-12-20T08:48:53;5.22;;;3.08;;
34481;SDS011;20720;48.886;9.388;2023-12-20T08:51:19;5.38;;;3.40;;
34481;SDS011;20720;48.886;9.388;2023-12-20T08:53:44;4.50;;;3.05;;
34481;SDS011;20720;48.886;9.388;2023-12-20T08:56:11;4.43;;;3.00;;
34481;SDS011;20720;48.886;9.388;2023-12-20T08:58:36;4.95;;;2.80;;
34481;SDS011;20720;48.886;9.388;2023-12-20T09:01:02;6.88;;;3.60;;
34481;SDS011;20720;48.886;9.388;2023-12-20T09:03:27;5.05;;;3.53;;
34481;SDS011;20720;48.886;9.388;2023-12-20T09:05:52;4.20;;;2.70;;
34481;SDS011;20720;48.886;9.388;2023-12-20T09:08:18;5.78;;;2.65;;
34481;SDS011;20720;48.886;9.388;2023-12-20T09:10:43;5.22;;;3.30;;
34481;SDS011;20720;48.886;9.388;2023-12-20T09:13:09;7.43;;;3.08;;
34481;SDS011;20720;48.886;9.388;2023-12-20T09:15:34;4.80;;;2.90;;
34481;SDS011;20720;48.886;9.388;2023-12-20T09:18:00;5.97;;;2.90;;
34481;SDS011;20720;48.886;9.388;2023-12-20T09:20:25;5.07;;;2.88;;
34481;SDS011;20720;48.886;9.388;2023-12-20T09:22:52;4.97;;;2.85;;
34481;SDS011;20720;48.886;9.388;2023-12-20T09:25:17;4.40;;;2.80;;
34481;SDS011;20720;48.886;9.388;2023-12-20T09:27:43;5.13;;;2.90;;
34481;SDS011;20720;48.886;9.388;2023-12-20T09:30:08;6.38;;;3.20;;
34481;SDS011;20720;48.886;9.388;2023-12-20T09:32:34;7.93;;;3.17;;
34481;SDS011;20720;48.886;9.388;2023-12-20T09:35:00;4.50;;;2.90;;
34481;SDS011;20720;48.886;9.388;2023-12-20T09:37:26;4.03;;;3.00;;
34481;SDS011;20720;48.886;9.388;2023-12-20T09:39:52;5.70;;;3.30;;
34481;SDS011;20720;48.886;9.388;2023-12-20T09:42:19;4.05;;;2.60;;
34481;SDS011;20720;48.886;9.388;2023-12-20T09:44:49;8.05;;;3.47;;
34481;SDS011;20720;48.886;9.388;2023-12-20T09:47:15;5.15;;;3.65;;
34481;SDS011;20720;48.886;9.388;2023-12-20T09:49:40;8.30;;;2.63;;
34481;SDS011;20720;48.886;9.388;2023-12-20T09:52:08;5.60;;;3.60;;
34481;SDS011;20720;48.886;9.388;2023-12-20T09:54:36;6.63;;;3.33;;
34481;SDS011;20720;48.886;9.388;2023-12-20T09:57:01;7.18;;;3.50;;
34481;SDS011;20720;48.886;9.388;2023-12-20T09:59:26;4.28;;;2.67;;
34481;SDS011;20720;48.886;9.388;2023-12-20T10:01:51;13.18;;;7.97;;
34481;SDS011;20720;48.886;9.388;2023-12-20T10:04:21;6.95;;;2.97;;
34481;SDS011;20720;48.886;9.388;2023-12-20T10:06:47;5.88;;;3.38;;
34481;SDS011;20720;48.886;9.388;2023-12-20T10:09:12;24.58;;;13.05;;
34481;SDS011;20720;48.886;9.388;2023-12-20T10:11:38;6.40;;;3.53;;
34481;SDS011;20720;48.886;9.388;2023-12-20T10:14:04;11.98;;;6.93;;
34481;SDS011;20720;48.886;9.388;2023-12-20T10:16:31;8.40;;;2.10;;
34481;SDS011;20720;48.886;9.388;2023-12-20T10:18:58;8.00;;;1.90;;
34481;SDS011;20720;48.886;9.388;2023-12-20T10:21:25;5.57;;;1.60;;
34481;SDS011;20720;48.886;9.388;2023-12-20T10:23:51;4.00;;;1.40;;
34481;SDS011;20720;48.886;9.388;2023-12-20T10:26:23;5.65;;;1.70;;
34481;SDS011;20720;48.886;9.388;2023-12-20T10:28:56;5.57;;;1.70;;
34481;SDS011;20720;48.886;9.388;2023-12-20T10:31:31;7.22;;;1.50;;
34481;SDS011;20720;48.886;9.388;2023-12-20T10:33:58;7.82;;;1.70;;
34481;SDS011;20720;48.886;9.388;2023-12-20T10:36:25;5.60;;;1.48;;
34481;SDS011;20720;48.886;9.388;2023-12-20T10:38:52;4.78;;;1.33;;
34481;SDS011;20720;48.886;9.388;2023-12-20T10:41:19;6.10;;;1.70;;
34481;SDS011;20720;48.886;9.388;2023-12-20T10:43:58;6.97;;;2.10;;
34481;SDS011;20720;48.886;9.388;2023-12-20T10:46:24;5.97;;;1.60;;
34481;SDS011;20720;48.886;9.388;2023-12-20T10:48:53;6.45;;;1.65;;
34481;SDS011;20720;48.886;9.388;2023-12-20T10:51:18;7.47;;;1.40;;
34481;SDS011;20720;48.886;9.388;2023-12-20T10:53:46;6.30;;;1.70;;
34481;SDS011;20720;48.886;9.388;2023-12-20T10:56:12;6.28;;;1.35;;
34481;SDS011;20720;48.886;9.388;2023-12-20T10:58:41;6.97;;;2.72;;
34481;SDS011;20720;48.886;9.388;2023-12-20T11:01:10;4.40;;;1.25;;
34481;SDS011;20720;48.886;9.388;2023-12-20T11:03:38;6.80;;;1.58;;
34481;SDS011;20720;48.886;9.388;2023-12-20T11:06:12;3.92;;;1.40;;
34481;SDS011;20720;48.886;9.388;2023-12-20T11:08:47;5.88;;;1.40;;
34481;SDS011;20720;48.886;9.388;2023-12-20T11:11:29;5.95;;;1.48;;
34481;SDS011;20720;48.886;9.388;2023-12-20T11:14:07;4.35;;;1.38;;
34481;SDS011;20720;48.886;9.388;2023-12-20T11:16:37;10.95;;;1.70;;
34481;SDS011;20720;48.886;9.388;2023-12-20T11:19:04;3.55;;;1.20;;
34481;SDS011;20720;48.886;9.388;2023-12-20T11:21:30;5.22;;;2.00;;
34481;SDS011;20720;48.886;9.388;2023-12-20T11:23:56;6.00;;;1.23;;
34481;SDS011;20720;48.886;9.388;2023-12-20T11:26:27;4.88;;;1.67;;
34481;SDS011;20720;48.886;9.388;2023-12-20T11:31:19;5.30;;;1.27;;
34481;SDS011;20720;48.886;9.388;2023-12-20T11:33:44;6.13;;;1.15;;
34481;SDS011;20720;48.886;9.388;2023-12-20T11:36:14;4.47;;;1.20;;
34481;SDS011;20720;48.886;9.388;2023-12-20T11:38:56;5.07;;;1.08;;
34481;SDS011;20720;48.886;9.388;2023-12-20T11:41:22;5.40;;;1.08;;
34481;SDS011;20720;48.886;9.388;2023-12-20T11:43:49;18.33;;;1.10;;
34481;SDS011;20720;48.886;9.388;2023-12-20T11:46:18;8.65;;;1.70;;
34481;SDS011;20720;48.886;9.388;2023-12-20T11:48:43;7.70;;;1.42;;
34481;SDS011;20720;48.886;9.388;2023-12-20T11:51:10;4.47;;;1.10;;
34481;SDS011;20720;48.886;9.388;2023-12-20T11:53:36;7.10;;;1.42;;
34481;SDS011;20720;48.886;9.388;2023-12-20T11:56:02;7.60;;;1.83;;
34481;SDS011;20720;48.886;9.388;2023-12-20T11:58:28;5.22;;;1.10;;
34481;SDS011;20720;48.886;9.388;2023-12-20T12:00:54;5.15;;;1.70;;
34481;SDS011;20720;48.886;9.388;2023-12-20T12:03:20;9.25;;;1.58;;
34481;SDS011;20720;48.886;9.388;2023-12-20T12:05:47;7.90;;;1.48;;
34481;SDS011;20720;48.886;9.388;2023-12-20T12:08:12;5.30;;;1.25;;
34481;SDS011;20720;48.886;9.388;2023-12-20T12:10:38;7.00;;;1.50;;
34481;SDS011;20720;48.886;9.388;2023-12-20T12:13:03;8.35;;;1.60;;
34481;SDS011;20720;48.886;9.388;2023-12-20T12:15:29;7.22;;;1.25;;
34481;SDS011;20720;48.886;9.388;2023-12-20T12:17:55;3.42;;;1.20;;
34481;SDS011;20720;48.886;9.388;2023-12-20T12:20:21;7.32;;;1.40;;
34481;SDS011;20720;48.886;9.388;2023-12-20T12:22:56;4.55;;;1.67;;
34481;SDS011;20720;48.886;9.388;2023-12-20T12:25:22;8.40;;;1.52;;
34481;SDS011;20720;48.886;9.388;2023-12-20T12:27:48;6.05;;;1.38;;
34481;SDS011;20720;48.886;9.388;2023-12-20T12:30:15;8.07;;;1.58;;
34481;SDS011;20720;48.886;9.388;2023-12-20T12:32:43;6.38;;;1.60;;
34481;SDS011;20720;48.886;9.388;2023-12-20T12:35:09;8.43;;;1.77;;
34481;SDS011;20720;48.886;9.388;2023-12-20T12:37:35;3.70;;;1.17;;
34481;SDS011;20720;48.886;9.388;2023-12-20T12:40:24;12.88;;;2.10;;
34481;SDS011;20720;48.886;9.388;2023-12-20T12:42:49;5.80;;;1.65;;
34481;SDS011;20720;48.886;9.388;2023-12-20T12:45:14;8.43;;;1.70;;
34481;SDS011;20720;48.886;9.388;2023-12-20T12:47:40;10.02;;;2.08;;
34481;SDS011;20720;48.886;9.388;2023-12-20T12:50:06;9.57;;;1.40;;
34481;SDS011;20720;48.886;9.388;2023-12-20T12:52:32;7.88;;;1.70;;
34481;SDS011;20720;48.886;9.388;2023-12-20T12:54:57;6.18;;;1.50;;
34481;SDS011;20720;48.886;9.388;2023-12-20T12:57:22;6.10;;;1.20;;
34481;SDS011;20720;48.886;9.388;2023-12-20T12:59:48;5.93;;;1.70;;
34481;SDS011;20720;48.886;9.388;2023-12-20T13:02:14;5.53;;;1.20;;
34481;SDS011;20720;48.886;9.388;2023-12-20T13:04:40;9.27;;;1.50;;
34481;SDS011;20720;48.886;9.388;2023-12-20T13:07:06;4.97;;;1.70;;
34481;SDS011;20720;48.886;9.388;2023-12-20T13:09:32;4.85;;;1.50;;
34481;SDS011;20720;48.886;9.388;2023-12-20T13:11:58;8.38;;;1.35;;
34481;SDS011;20720;48.886;9.388;2023-12-20T13:14:24;5.72;;;1.42;;
34481;SDS011;20720;48.886;9.388;2023-12-20T13:16:49;11.75;;;1.70;;
34481;SDS011;20720;48.886;9.388;2023-12-20T13:19:14;4.90;;;1.20;;
34481;SDS011;20720;48.886;9.388;2023-12-20T13:21:40;13.35;;;1.65;;
34481;SDS011;20720;48.886;9.388;2023-12-20T13:24:05;5.43;;;1.25;;
34481;SDS011;20720;48.886;9.388;2023-12-20T13:26:30;8.82;;;1.40;;
34481;SDS011;20720;48.886;9.388;2023-12-20T13:28:56;8.68;;;1.58;;
34481;SDS011;20720;48.886;9.388;2023-12-20T13:31:21;4.65;;;1.10;;
34481;SDS011;20720;48.886;9.388;2023-12-20T13:33:47;6.80;;;1.48;;
34481;SDS011;20720;48.886;9.388;2023-12-20T13:36:12;5.97;;;1.52;;
34481;SDS011;20720;48.886;9.388;2023-12-20T13:38:38;5.35;;;1.40;;
34481;SDS011;20720;48.886;9.388;2023-12-20T13:41:03;10.35;;;1.85;;
34481;SDS011;20720;48.886;9.388;2023-12-20T13:43:30;4.60;;;1.08;;
34481;SDS011;20720;48.886;9.388;2023-12-20T13:45:57;4.80;;;1.38;;
34481;SDS011;20720;48.886;9.388;2023-12-20T13:48:22;4.50;;;1.02;;
34481;SDS011;20720;48.886;9.388;2023-12-20T13:50:48;5.13;;;0.98;;
34481;SDS011;20720;48.886;9.388;2023-12-20T13:53:13;4.60;;;1.20;;
34481;SDS011;20720;48.886;9.388;2023-12-20T13:55:39;6.82;;;1.27;;
34481;SDS011;20720;48.886;9.388;2023-12-20T13:58:05;4.68;;;1.08;;
34481;SDS011;20720;48.886;9.388;2023-12-20T14:00:35;5.25;;;1.50;;
34481;SDS011;20720;48.886;9.388;2023-12-20T14:03:01;6.82;;;1.35;;
34481;SDS011;20720;48.886;9.388;2023-12-20T14:05:27;5.97;;;1.48;;
34481;SDS011;20720;48.886;9.388;2023-12-20T14:07:53;3.47;;;1.30;;
34481;SDS011;20720;48.886;9.388;2023-12-20T14:10:18;6.55;;;1.48;;
34481;SDS011;20720;48.886;9.388;2023-12-20T14:12:43;4.85;;;1.40;;
34481;SDS011;20720;48.886;9.388;2023-12-20T14:15:09;4.20;;;1.45;;
34481;SDS011;20720;48.886;9.388;2023-12-20T14:17:39;5.15;;;1.05;;
34481;SDS011;20720;48.886;9.388;2023-12-20T14:20:08;8.27;;;1.23;;
34481;SDS011;20720;48.886;9.388;2023-12-20T14:22:34;10.00;;;1.35;;
34481;SDS011;20720;48.886;9.388;2023-12-20T14:25:00;6.22;;;1.90;;
34481;SDS011;20720;48.886;9.388;2023-12-20T14:27:26;2.40;;;0.90;;
34481;SDS011;20720;48.886;9.388;2023-12-20T14:29:53;6.57;;;1.20;;
34481;SDS011;20720;48.886;9.388;2023-12-20T14:32:18;7.15;;;1.25;;
34481;SDS011;20720;48.886;9.388;2023-12-20T14:34:43;9.15;;;4.40;;
34481;SDS011;20720;48.886;9.388;2023-12-20T14:37:09;7.13;;;1.75;;
34481;SDS011;20720;48.886;9.388;2023-12-20T14:39:34;10.63;;;2.35;;
34481;SDS011;20720;48.886;9.388;2023-12-20T14:41:59;6.60;;;2.17;;